createdAt,value
2019-02-07T00:00:12.412Z,2.88
2019-02-07T00:01:12.606Z,2.85
2019-02-07T00:02:12.863Z,2.79
2019-02-07T00:03:13.010Z,2.69
2019-02-07T00:04:13.208Z,2.64
2019-02-07T00:05:13.425Z,2.64
2019-02-07T00:06:13.630Z,2.54
2019-02-07T00:07:13.864Z,2.51
2019-02-07T00:08:14.054Z,2.46
2019-02-07T00:09:14.248Z,2.50
2019-02-07T00:10:14.487Z,2.51
2019-02-07T00:11:14.629Z,2.43
2019-02-07T00:12:14.881Z,2.40
2019-02-07T00:13:15.093Z,2.30
2019-02-07T00:14:15.285Z,2.32
2019-02-07T00:15:15.509Z,2.33
2019-02-07T00:16:15.698Z,2.36
2019-02-07T00:17:15.901Z,2.32
2019-02-07T00:18:16.164Z,2.32
2019-02-07T00:19:16.420Z,2.23
2019-02-07T00:20:16.580Z,2.25
2019-02-07T00:21:16.745Z,2.23
2019-02-07T00:22:16.991Z,2.18
2019-02-07T00:23:17.205Z,2.23
2019-02-07T00:24:17.404Z,2.23
2019-02-07T00:25:17.630Z,2.22
2019-02-07T00:26:17.825Z,2.18
2019-02-07T00:27:18.169Z,2.23
2019-02-07T00:28:18.234Z,2.10
2019-02-07T00:29:18.433Z,2.16
2019-02-07T00:30:18.658Z,2.08
2019-02-07T00:31:18.844Z,2.12
2019-02-07T00:32:19.077Z,2.05
2019-02-07T00:33:19.270Z,2.03
2019-02-07T00:34:19.487Z,1.85
2019-02-07T00:35:19.784Z,1.86
2019-02-07T00:36:19.873Z,1.86
2019-02-07T00:37:20.102Z,1.88
2019-02-07T00:38:20.284Z,1.74
2019-02-07T00:39:20.496Z,1.76
2019-02-07T00:40:20.735Z,1.81
2019-02-07T00:41:21.141Z,1.76
2019-02-07T00:42:21.140Z,1.70
2019-02-07T00:43:21.390Z,1.79
2019-02-07T00:44:21.514Z,1.79
2019-02-07T00:45:21.750Z,1.82
2019-02-07T00:46:21.947Z,1.81
2019-02-07T00:47:22.146Z,1.71
2019-02-07T00:48:22.352Z,1.70
2019-02-07T00:49:22.567Z,1.68
2019-02-07T00:50:22.773Z,1.76
2019-02-07T00:51:23.029Z,1.74
2019-02-07T00:52:23.241Z,1.61
2019-02-07T00:53:23.435Z,1.63
2019-02-07T00:54:23.636Z,1.57
2019-02-07T00:55:23.853Z,1.64
2019-02-07T00:56:24.053Z,1.57
2019-02-07T00:57:24.273Z,1.53
2019-02-07T00:58:24.516Z,1.48
2019-02-07T00:59:24.731Z,1.53
2019-02-07T01:00:25.062Z,1.46
2019-02-07T01:01:25.149Z,1.49
2019-02-07T01:02:25.375Z,1.38
2019-02-07T01:03:25.598Z,1.45
2019-02-07T01:04:25.798Z,1.36
2019-02-07T01:05:26.014Z,1.39
2019-02-07T01:06:26.178Z,1.30
2019-02-07T01:07:26.385Z,1.38
2019-02-07T01:08:26.795Z,1.30
2019-02-07T01:09:26.822Z,1.18
2019-02-07T01:10:27.048Z,1.20
2019-02-07T01:11:27.226Z,1.21
2019-02-07T01:12:27.438Z,1.18
2019-02-07T01:13:27.692Z,1.13
2019-02-07T01:14:27.857Z,1.02
2019-02-07T01:15:28.100Z,1.09
2019-02-07T01:16:28.355Z,1.09
2019-02-07T01:17:28.468Z,1.04
2019-02-07T01:18:28.727Z,1.04
2019-02-07T01:19:28.909Z,0.91
2019-02-07T01:20:29.123Z,1.02
2019-02-07T01:21:29.331Z,0.96
2019-02-07T01:22:29.522Z,0.99
2019-02-07T01:23:29.740Z,0.86
2019-02-07T01:24:29.998Z,0.89
2019-02-07T01:25:30.152Z,0.84
2019-02-07T01:26:30.352Z,0.78
2019-02-07T01:27:30.561Z,0.73
2019-02-07T01:28:30.812Z,0.70
2019-02-07T01:29:30.987Z,0.73
2019-02-07T01:30:31.210Z,0.68
2019-02-07T01:31:31.401Z,0.78
2019-02-07T01:32:31.621Z,0.67
2019-02-07T01:33:31.938Z,0.66
2019-02-07T01:34:32.013Z,0.63
2019-02-07T01:35:32.238Z,0.70
2019-02-07T01:36:32.431Z,0.71
2019-02-07T01:37:32.639Z,0.71
2019-02-07T01:38:32.877Z,0.77
2019-02-07T01:39:33.055Z,0.70
2019-02-07T01:40:33.277Z,0.78
2019-02-07T01:41:33.592Z,0.70
2019-02-07T01:42:33.677Z,0.76
2019-02-07T01:43:33.918Z,0.81
2019-02-07T01:44:34.087Z,0.70
2019-02-07T01:45:34.305Z,0.61
2019-02-07T01:46:34.506Z,0.66
2019-02-07T01:47:34.718Z,0.71
2019-02-07T01:48:34.945Z,0.58
2019-02-07T01:49:35.191Z,0.64
2019-02-07T01:50:35.311Z,0.52
2019-02-07T01:51:35.537Z,0.58
2019-02-07T01:52:35.744Z,0.45
2019-02-07T01:53:35.985Z,0.51
2019-02-07T01:54:36.160Z,0.52
2019-02-07T01:55:36.382Z,0.55
2019-02-07T01:56:36.571Z,0.55
2019-02-07T01:57:36.846Z,0.56
2019-02-07T01:58:36.990Z,0.59
2019-02-07T01:59:37.191Z,0.52
2019-02-07T02:00:37.412Z,0.56
2019-02-07T02:01:37.614Z,0.47
2019-02-07T02:02:37.814Z,0.55
2019-02-07T02:03:38.045Z,0.49
2019-02-07T02:04:38.257Z,0.51
2019-02-07T02:05:38.500Z,0.67
2019-02-07T02:06:38.769Z,0.56
2019-02-07T02:07:38.883Z,0.61
2019-02-07T02:08:39.111Z,0.49
2019-02-07T02:09:39.297Z,0.51
2019-02-07T02:10:39.523Z,0.45
2019-02-07T02:11:39.731Z,0.49
2019-02-07T02:12:39.920Z,0.42
2019-02-07T02:13:40.176Z,0.39
2019-02-07T02:14:40.436Z,0.52
2019-02-07T02:15:40.555Z,0.45
2019-02-07T02:16:40.768Z,0.39
2019-02-07T02:17:40.959Z,0.40
2019-02-07T02:18:41.422Z,0.29
2019-02-07T02:19:41.359Z,0.34
2019-02-07T02:20:41.580Z,0.23
2019-02-07T02:21:41.822Z,0.29
2019-02-07T02:22:42.153Z,0.31
2019-02-07T02:23:42.242Z,0.23
2019-02-07T02:24:45.112Z,0.23
2019-02-07T02:25:42.631Z,0.19
2019-02-07T02:26:42.866Z,0.24
2019-02-07T02:27:43.056Z,0.33
2019-02-07T02:28:43.290Z,0.16
2019-02-07T02:29:43.469Z,0.23
2019-02-07T02:30:43.770Z,0.23
2019-02-07T02:31:43.887Z,0.27
2019-02-07T02:32:44.083Z,0.33
2019-02-07T02:33:44.366Z,0.23
2019-02-07T02:34:44.498Z,0.18
2019-02-07T02:35:44.708Z,0.23
2019-02-07T02:36:44.913Z,0.30
2019-02-07T02:37:45.124Z,0.27
2019-02-07T02:38:45.439Z,0.23
2019-02-07T02:39:45.516Z,0.24
2019-02-07T02:40:45.737Z,0.27
2019-02-07T02:41:45.956Z,0.20
2019-02-07T02:42:46.133Z,0.29
2019-02-07T02:43:46.408Z,0.33
2019-02-07T02:44:46.572Z,0.37
2019-02-07T02:45:46.780Z,0.34
2019-02-07T02:46:47.040Z,0.34
2019-02-07T02:47:47.250Z,0.36
2019-02-07T02:48:47.481Z,0.37
2019-02-07T02:49:47.649Z,0.30
2019-02-07T02:50:47.856Z,0.27
2019-02-07T02:51:48.082Z,0.37
2019-02-07T02:52:48.270Z,0.34
2019-02-07T02:53:48.782Z,0.16
2019-02-07T02:54:48.683Z,0.34
2019-02-07T02:55:49.026Z,0.24
2019-02-07T02:56:49.128Z,0.27
2019-02-07T02:57:49.322Z,0.26
2019-02-07T02:58:49.544Z,0.18
2019-02-07T02:59:49.735Z,0.30
2019-02-07T03:00:49.931Z,0.23
2019-02-07T03:01:50.162Z,0.26
2019-02-07T03:02:50.358Z,0.18
2019-02-07T03:03:50.937Z,0.24
2019-02-07T03:04:50.757Z,0.26
2019-02-07T03:05:50.963Z,0.20
2019-02-07T03:06:51.189Z,0.20
2019-02-07T03:07:51.378Z,0.24
2019-02-07T03:08:51.616Z,0.19
2019-02-07T03:09:51.772Z,0.20
2019-02-07T03:10:52.017Z,0.23
2019-02-07T03:11:52.278Z,0.16
2019-02-07T03:12:52.400Z,0.24
2019-02-07T03:13:52.631Z,0.23
2019-02-07T03:14:52.831Z,0.24
2019-02-07T03:15:53.038Z,0.11
2019-02-07T03:16:53.258Z,0.18
2019-02-07T03:17:53.449Z,0.05
2019-02-07T03:18:53.678Z,0.02
2019-02-07T03:19:53.934Z,0.12
2019-02-07T03:20:54.041Z,0.11
2019-02-07T03:21:54.278Z,0.00
2019-02-07T03:22:54.490Z,0.05
2019-02-07T03:23:54.705Z,0.01
2019-02-07T03:24:54.928Z,-0.02
2019-02-07T03:25:55.108Z,0.02
2019-02-07T03:26:55.336Z,0.12
2019-02-07T03:27:55.533Z,0.02
2019-02-07T03:28:55.790Z,-0.06
2019-02-07T03:29:56.180Z,0.02
2019-02-07T03:30:56.135Z,0.11
2019-02-07T03:31:56.375Z,0.02
2019-02-07T03:32:56.778Z,0.02
2019-02-07T03:33:56.785Z,-0.05
2019-02-07T03:34:56.982Z,-0.02
2019-02-07T03:35:57.173Z,0.01
2019-02-07T03:36:57.529Z,-0.07
2019-02-07T03:37:57.612Z,-0.06
2019-02-07T03:38:57.809Z,-0.12
2019-02-07T03:39:58.073Z,-0.05
2019-02-07T03:40:58.219Z,-0.17
2019-02-07T03:41:58.445Z,-0.13
2019-02-07T03:42:58.642Z,-0.21
2019-02-07T03:43:58.836Z,-0.21
2019-02-07T03:44:59.228Z,-0.21
2019-02-07T03:46:02.853Z,-0.24
2019-02-07T03:46:59.464Z,-0.28
2019-02-07T03:47:59.658Z,-0.31
2019-02-07T03:48:59.847Z,-0.35
2019-02-07T03:50:00.122Z,-0.46
2019-02-07T03:51:00.302Z,-0.39
2019-02-07T03:52:00.519Z,-0.35
2019-02-07T03:53:00.755Z,-0.39
2019-02-07T03:54:00.893Z,-0.38
2019-02-07T03:55:01.334Z,-0.39
2019-02-07T03:56:01.312Z,-0.39
2019-02-07T03:57:01.558Z,-0.49
2019-02-07T03:58:01.736Z,-0.59
2019-02-07T03:59:01.947Z,-0.63
2019-02-07T04:00:02.401Z,-0.60
2019-02-07T04:01:02.387Z,-0.53
2019-02-07T04:02:02.591Z,-0.62
2019-02-07T04:03:02.789Z,-0.64
2019-02-07T04:04:02.990Z,-0.62
2019-02-07T04:05:03.219Z,-0.66
2019-02-07T04:06:03.410Z,-0.66
2019-02-07T04:07:03.593Z,-0.64
2019-02-07T04:08:03.818Z,-0.70
2019-02-07T04:09:04.035Z,-0.67
2019-02-07T04:10:04.352Z,-0.70
2019-02-07T04:11:04.422Z,-0.78
2019-02-07T04:12:04.641Z,-0.75
2019-02-07T04:13:04.860Z,-0.72
2019-02-07T04:14:05.066Z,-0.74
2019-02-07T04:15:05.289Z,-0.77
2019-02-07T04:16:14.805Z,-0.74
2019-02-07T04:17:06.667Z,-0.72
2019-02-07T04:18:06.017Z,-0.84
2019-02-07T04:19:06.102Z,-0.75
2019-02-07T04:20:06.332Z,-0.89
2019-02-07T04:21:06.529Z,-0.93
2019-02-07T04:22:06.713Z,-0.94
2019-02-07T04:23:06.941Z,-0.97
2019-02-07T04:24:07.174Z,-0.84
2019-02-07T04:25:07.397Z,-0.94
2019-02-07T04:26:07.653Z,-1.00
2019-02-07T04:27:07.774Z,-1.00
2019-02-07T04:28:07.989Z,-0.93
2019-02-07T04:29:08.194Z,-0.97
2019-02-07T04:30:08.415Z,-0.99
2019-02-07T04:31:08.618Z,-0.97
2019-02-07T04:32:08.813Z,-1.07
2019-02-07T04:33:09.041Z,-1.09
2019-02-07T04:34:09.292Z,-1.15
2019-02-07T04:35:09.429Z,-1.12
2019-02-07T04:36:09.654Z,-1.17
2019-02-07T04:37:09.828Z,-1.11
2019-02-07T04:38:10.067Z,-1.06
2019-02-07T04:39:10.253Z,-1.11
2019-02-07T04:40:12.103Z,-1.21
2019-02-07T04:41:10.713Z,-1.14
2019-02-07T04:42:10.916Z,-1.17
2019-02-07T04:43:11.182Z,-1.18
2019-02-07T04:44:11.301Z,-1.22
2019-02-07T04:45:11.510Z,-1.24
2019-02-07T04:46:11.729Z,-1.30
2019-02-07T04:47:11.920Z,-1.32
2019-02-07T04:48:12.146Z,-1.30
2019-02-07T04:49:12.361Z,-1.36
2019-02-07T04:50:12.566Z,-1.27
2019-02-07T04:51:12.845Z,-1.30
2019-02-07T04:52:12.953Z,-1.29
2019-02-07T04:53:13.174Z,-1.25
2019-02-07T04:54:13.367Z,-1.30
2019-02-07T04:55:13.585Z,-1.32
2019-02-07T04:56:13.757Z,-1.32
2019-02-07T04:57:14.006Z,-1.30
2019-02-07T04:58:14.200Z,-1.35
2019-02-07T04:59:14.549Z,-1.39
2019-02-07T05:00:14.613Z,-1.29
2019-02-07T05:01:14.786Z,-1.29
2019-02-07T05:02:15.012Z,-1.30
2019-02-07T05:03:15.228Z,-1.35
2019-02-07T05:04:15.436Z,-1.32
2019-02-07T05:05:15.646Z,-1.32
2019-02-07T05:06:15.834Z,-1.42
2019-02-07T05:07:16.068Z,-1.40
2019-02-07T05:08:16.246Z,-1.43
2019-02-07T05:09:16.442Z,-1.29
2019-02-07T05:10:16.665Z,-1.33
2019-02-07T05:11:16.860Z,-1.35
2019-02-07T05:12:17.086Z,-1.29
2019-02-07T05:13:17.265Z,-1.39
2019-02-07T05:14:17.469Z,-1.33
2019-02-07T05:15:17.733Z,-1.30
2019-02-07T05:16:17.873Z,-1.24
2019-02-07T05:17:18.113Z,-1.15
2019-02-07T05:18:18.299Z,-1.14
2019-02-07T05:19:18.499Z,-1.12
2019-02-07T05:20:18.734Z,-1.17
2019-02-07T05:21:18.937Z,-1.18
2019-02-07T05:22:19.133Z,-1.12
2019-02-07T05:23:19.388Z,-1.14
2019-02-07T05:24:19.644Z,-1.09
2019-02-07T05:25:19.755Z,-1.07
2019-02-07T05:26:19.982Z,-1.06
2019-02-07T05:27:20.185Z,-1.01
2019-02-07T05:28:20.418Z,-0.99
2019-02-07T05:29:20.583Z,-0.99
2019-02-07T05:30:20.806Z,-1.00
2019-02-07T05:31:21.049Z,-0.97
2019-02-07T05:32:21.352Z,-0.91
2019-02-07T05:33:21.493Z,-0.91
2019-02-07T05:34:21.635Z,-0.94
2019-02-07T05:35:22.091Z,-0.85
2019-02-07T05:36:22.089Z,-0.93
2019-02-07T05:37:22.280Z,-0.93
2019-02-07T05:38:22.517Z,-0.81
2019-02-07T05:39:22.692Z,-0.78
2019-02-07T05:40:22.983Z,-0.78
2019-02-07T05:41:23.111Z,-0.77
2019-02-07T05:42:23.315Z,-0.74
2019-02-07T05:43:23.535Z,-0.80
2019-02-07T05:44:23.717Z,-0.80
2019-02-07T05:45:23.923Z,-0.84
2019-02-07T05:46:24.133Z,-0.75
2019-02-07T05:47:24.333Z,-0.74
2019-02-07T05:48:24.635Z,-0.75
2019-02-07T05:49:24.733Z,-0.81
2019-02-07T05:50:24.950Z,-0.75
2019-02-07T05:51:25.170Z,-0.81
2019-02-07T05:52:25.343Z,-0.78
2019-02-07T05:53:25.606Z,-0.77
2019-02-07T05:54:25.780Z,-0.72
2019-02-07T05:55:25.983Z,-0.75
2019-02-07T05:56:26.244Z,-0.72
2019-02-07T05:57:26.422Z,-0.75
2019-02-07T05:58:26.658Z,-0.72
2019-02-07T05:59:26.815Z,-0.67
2019-02-07T06:00:27.017Z,-0.60
2019-02-07T06:01:27.246Z,-0.62
2019-02-07T06:02:27.423Z,-0.69
2019-02-07T06:03:27.676Z,-0.70
2019-02-07T06:04:27.841Z,-0.60
2019-02-07T06:05:28.143Z,-0.64
2019-02-07T06:06:28.277Z,-0.70
2019-02-07T06:07:28.462Z,-0.62
2019-02-07T06:08:28.703Z,-0.64
2019-02-07T06:09:28.880Z,-0.64
2019-02-07T06:10:29.089Z,-0.62
2019-02-07T06:11:29.305Z,-0.64
2019-02-07T06:12:29.497Z,-0.64
2019-02-07T06:13:29.841Z,-0.59
2019-02-07T06:14:30.000Z,-0.57
2019-02-07T06:15:30.116Z,-0.57
2019-02-07T06:16:30.345Z,-0.62
2019-02-07T06:17:30.523Z,-0.66
2019-02-07T06:18:30.774Z,-0.63
2019-02-07T06:19:30.929Z,-0.60
2019-02-07T06:20:31.155Z,-0.60
2019-02-07T06:21:31.432Z,-0.60
2019-02-07T06:22:31.548Z,-0.62
2019-02-07T06:23:31.782Z,-0.60
2019-02-07T06:24:31.968Z,-0.54
2019-02-07T06:25:32.184Z,-0.51
2019-02-07T06:26:32.404Z,-0.39
2019-02-07T06:27:32.588Z,-0.49
2019-02-07T06:28:32.795Z,-0.39
2019-02-07T06:29:33.071Z,-0.44
2019-02-07T06:30:33.211Z,-0.42
2019-02-07T06:31:33.453Z,-0.42
2019-02-07T06:32:33.631Z,-0.36
2019-02-07T06:33:33.840Z,-0.30
2019-02-07T06:34:34.075Z,-0.33
2019-02-07T06:35:34.272Z,-0.31
2019-02-07T06:36:34.498Z,-0.26
2019-02-07T06:37:34.713Z,-0.24
2019-02-07T06:38:34.947Z,-0.20
2019-02-07T06:39:35.124Z,-0.23
2019-02-07T06:40:35.306Z,-0.21
2019-02-07T06:41:35.541Z,-0.20
2019-02-07T06:42:35.704Z,-0.21
2019-02-07T06:43:35.926Z,-0.10
2019-02-07T06:44:36.171Z,-0.13
2019-02-07T06:45:36.342Z,-0.05
2019-02-07T06:46:36.696Z,-0.12
2019-02-07T06:47:36.736Z,-0.05
2019-02-07T06:48:36.957Z,-0.15
2019-02-07T06:49:37.180Z,-0.06
2019-02-07T06:50:37.377Z,-0.06
2019-02-07T06:51:37.605Z,0.02
2019-02-07T06:52:37.790Z,-0.03
2019-02-07T06:53:37.975Z,0.00
2019-02-07T06:54:38.301Z,0.01
2019-02-07T06:55:38.398Z,0.06
2019-02-07T06:56:38.623Z,0.02
2019-02-07T06:57:38.814Z,0.11
2019-02-07T06:58:38.990Z,0.18
2019-02-07T06:59:39.254Z,0.19
2019-02-07T07:00:39.427Z,0.23
2019-02-07T07:01:39.659Z,0.20
2019-02-07T07:02:39.888Z,0.39
2019-02-07T07:03:40.022Z,0.36
2019-02-07T07:04:40.279Z,0.40
2019-02-07T07:05:40.475Z,0.45
2019-02-07T07:06:40.702Z,0.52
2019-02-07T07:07:40.889Z,0.52
2019-02-07T07:08:41.088Z,0.58
2019-02-07T07:09:41.323Z,0.52
2019-02-07T07:10:41.564Z,0.51
2019-02-07T07:11:41.725Z,0.48
2019-02-07T07:12:41.927Z,0.52
2019-02-07T07:13:42.366Z,0.64
2019-02-07T07:14:42.367Z,0.61
2019-02-07T07:15:42.532Z,0.67
2019-02-07T07:16:42.741Z,0.70
2019-02-07T07:17:42.962Z,0.73
2019-02-07T07:18:43.181Z,0.64
2019-02-07T07:19:43.500Z,0.70
2019-02-07T07:20:43.564Z,0.77
2019-02-07T07:21:43.805Z,0.73
2019-02-07T07:22:43.997Z,0.73
2019-02-07T07:23:44.200Z,0.78
2019-02-07T07:24:44.433Z,0.77
2019-02-07T07:25:44.613Z,0.81
2019-02-07T07:26:44.808Z,0.81
2019-02-07T07:27:45.091Z,0.88
2019-02-07T07:28:45.228Z,0.82
2019-02-07T07:29:45.610Z,0.91
2019-02-07T07:30:45.647Z,0.94
2019-02-07T07:31:45.837Z,0.92
2019-02-07T07:32:46.083Z,0.95
2019-02-07T07:33:46.290Z,0.96
2019-02-07T07:34:46.801Z,0.94
2019-02-07T07:35:46.811Z,1.02
2019-02-07T07:36:46.884Z,1.03
2019-02-07T07:37:47.127Z,0.96
2019-02-07T07:38:47.352Z,1.09
2019-02-07T07:39:47.602Z,0.96
2019-02-07T07:40:47.764Z,1.12
2019-02-07T07:41:47.969Z,1.18
2019-02-07T07:42:48.194Z,1.12
2019-02-07T07:43:48.420Z,1.09
2019-02-07T07:44:48.616Z,1.12
2019-02-07T07:45:48.787Z,1.16
2019-02-07T07:46:48.990Z,1.16
2019-02-07T07:47:49.215Z,1.06
2019-02-07T07:48:49.403Z,1.13
2019-02-07T07:49:49.972Z,1.24
2019-02-07T07:50:49.828Z,1.22
2019-02-07T07:51:50.057Z,1.25
2019-02-07T07:52:50.300Z,1.28
2019-02-07T07:53:50.446Z,1.32
2019-02-07T07:54:50.688Z,1.32
2019-02-07T07:55:50.867Z,1.34
2019-02-07T07:56:51.068Z,1.42
2019-02-07T07:57:51.295Z,1.40
2019-02-07T07:58:51.490Z,1.48
2019-02-07T07:59:51.791Z,1.48
2019-02-07T08:00:52.002Z,1.50
2019-02-07T08:01:52.109Z,1.52
2019-02-07T08:02:52.333Z,1.60
2019-02-07T08:03:52.519Z,1.63
2019-02-07T08:04:52.802Z,1.61
2019-02-07T08:05:53.386Z,1.70
2019-02-07T08:06:53.166Z,1.71
2019-02-07T08:07:53.363Z,1.76
2019-02-07T08:08:53.712Z,1.70
2019-02-07T08:09:53.781Z,1.71
2019-02-07T08:10:53.955Z,1.76
2019-02-07T08:11:54.202Z,1.81
2019-02-07T08:12:54.413Z,1.76
2019-02-07T08:13:54.589Z,1.85
2019-02-07T08:14:54.807Z,1.76
2019-02-07T08:15:55.109Z,1.86
2019-02-07T08:16:55.302Z,1.86
2019-02-07T08:17:55.419Z,1.85
2019-02-07T08:18:55.618Z,1.95
2019-02-07T08:19:55.840Z,2.01
2019-02-07T08:20:56.028Z,1.85
2019-02-07T08:21:56.241Z,1.93
2019-02-07T08:22:56.445Z,1.97
2019-02-07T08:23:56.651Z,2.00
2019-02-07T08:24:56.936Z,1.97
2019-02-07T08:25:57.063Z,1.92
2019-02-07T08:26:57.344Z,1.98
2019-02-07T08:27:57.472Z,1.98
2019-02-07T08:28:57.681Z,1.97
2019-02-07T08:29:57.922Z,1.93
2019-02-07T08:30:58.113Z,2.04
2019-02-07T08:31:58.343Z,2.05
2019-02-07T08:32:58.585Z,2.08
2019-02-07T08:33:58.786Z,2.04
2019-02-07T08:34:58.942Z,2.03
2019-02-07T08:35:59.148Z,2.01
2019-02-07T08:36:59.377Z,2.00
2019-02-07T08:37:59.582Z,2.10
2019-02-07T08:38:59.760Z,2.08
2019-02-07T08:39:59.962Z,2.04
2019-02-07T08:41:00.208Z,2.08
2019-02-07T08:42:00.595Z,2.10
2019-02-07T08:43:00.660Z,2.03
2019-02-07T08:44:00.839Z,2.12
2019-02-07T08:45:01.050Z,2.16
2019-02-07T08:46:01.345Z,2.14
2019-02-07T08:47:01.509Z,2.16
2019-02-07T08:48:03.694Z,2.08
2019-02-07T08:49:01.906Z,2.21
2019-02-07T08:50:02.193Z,2.22
2019-02-07T08:51:02.321Z,2.26
2019-02-07T08:52:02.754Z,2.16
2019-02-07T08:53:02.740Z,2.19
2019-02-07T08:54:02.915Z,2.23
2019-02-07T08:55:03.142Z,2.25
2019-02-07T08:56:03.348Z,2.40
2019-02-07T08:57:03.579Z,2.33
2019-02-07T08:58:03.869Z,2.36
2019-02-07T08:59:03.952Z,2.34
2019-02-07T09:00:04.166Z,2.46
2019-02-07T09:01:04.388Z,2.46
2019-02-07T09:02:04.565Z,2.52
2019-02-07T09:03:04.815Z,2.46
2019-02-07T09:04:04.992Z,2.58
2019-02-07T09:05:05.197Z,2.55
2019-02-07T09:06:05.487Z,2.55
2019-02-07T09:07:05.637Z,2.65
2019-02-07T09:08:05.847Z,2.58
2019-02-07T09:09:06.032Z,2.68
2019-02-07T09:10:06.240Z,2.58
2019-02-07T09:11:06.468Z,2.69
2019-02-07T09:12:06.666Z,2.65
2019-02-07T09:13:06.893Z,2.69
2019-02-07T09:14:07.081Z,2.69
2019-02-07T09:15:07.367Z,2.70
2019-02-07T09:16:07.523Z,2.70
2019-02-07T09:17:07.700Z,2.69
2019-02-07T09:18:10.317Z,2.85
2019-02-07T09:19:08.106Z,2.73
2019-02-07T09:20:08.332Z,2.70
2019-02-07T09:21:08.558Z,2.65
2019-02-07T09:22:08.779Z,2.79
2019-02-07T09:23:09.085Z,2.70
2019-02-07T09:24:09.189Z,2.87
2019-02-07T09:25:09.399Z,2.88
2019-02-07T09:26:09.631Z,2.85
2019-02-07T09:27:09.843Z,2.85
2019-02-07T09:28:10.089Z,2.91
2019-02-07T09:29:10.218Z,2.94
2019-02-07T09:30:10.444Z,2.98
2019-02-07T09:31:10.758Z,3.03
2019-02-07T09:32:10.855Z,3.06
2019-02-07T09:33:11.121Z,3.13
2019-02-07T09:34:11.284Z,3.18
2019-02-07T09:35:11.557Z,3.19
2019-02-07T09:36:11.702Z,3.27
2019-02-07T09:37:11.935Z,3.29
2019-02-07T09:38:12.123Z,3.37
2019-02-07T09:39:12.374Z,3.45
2019-02-07T09:40:12.487Z,3.46
2019-02-07T09:41:12.721Z,3.53
2019-02-07T09:42:12.914Z,3.56
2019-02-07T09:43:13.140Z,3.61
2019-02-07T09:44:13.364Z,3.67
2019-02-07T09:45:13.574Z,3.76
2019-02-07T09:46:13.803Z,3.85
2019-02-07T09:47:14.001Z,3.95
2019-02-07T09:48:21.378Z,3.89
2019-02-07T09:49:15.425Z,3.95
2019-02-07T09:50:14.629Z,4.00
2019-02-07T09:51:14.857Z,4.00
2019-02-07T09:52:15.028Z,4.03
2019-02-07T09:53:23.778Z,4.02
2019-02-07T09:54:16.498Z,3.89
2019-02-07T09:55:15.697Z,3.94
2019-02-07T09:56:16.033Z,3.89
2019-02-07T09:57:16.082Z,3.89
2019-02-07T09:58:16.312Z,3.84
2019-02-07T09:59:16.520Z,3.86
2019-02-07T10:00:16.719Z,3.86
2019-02-07T10:01:16.941Z,3.85
2019-02-07T10:02:17.128Z,3.71
2019-02-07T10:03:17.341Z,3.73
2019-02-07T10:04:17.707Z,3.81
2019-02-07T10:05:17.739Z,3.77
2019-02-07T10:06:17.981Z,3.71
2019-02-07T10:07:18.168Z,3.63
2019-02-07T10:08:18.371Z,3.67
2019-02-07T10:09:18.598Z,3.63
2019-02-07T10:10:18.787Z,3.53
2019-02-07T10:11:19.014Z,3.66
2019-02-07T10:12:19.237Z,3.61
2019-02-07T10:13:19.406Z,3.59
2019-02-07T10:14:19.625Z,3.63
2019-02-07T10:15:19.831Z,3.66
2019-02-07T10:16:20.058Z,3.67
2019-02-07T10:17:20.243Z,3.71
2019-02-07T10:18:20.471Z,3.77
2019-02-07T10:19:20.680Z,3.82
2019-02-07T10:20:20.895Z,3.78
2019-02-07T10:21:21.071Z,3.76
2019-02-07T10:22:21.270Z,3.76
2019-02-07T10:23:21.484Z,3.77
2019-02-07T10:24:21.711Z,3.85
2019-02-07T10:25:21.881Z,3.86
2019-02-07T10:26:22.109Z,3.71
2019-02-07T10:27:22.305Z,3.82
2019-02-07T10:28:22.577Z,3.67
2019-02-07T10:29:23.064Z,3.74
2019-02-07T10:30:22.923Z,3.71
2019-02-07T10:31:23.147Z,3.64
2019-02-07T10:32:23.350Z,3.73
2019-02-07T10:33:23.558Z,3.74
2019-02-07T10:34:23.792Z,3.89
2019-02-07T10:35:23.971Z,3.88
2019-02-07T10:36:24.199Z,4.00
2019-02-07T10:37:24.503Z,4.04
2019-02-07T10:38:24.597Z,4.12
2019-02-07T10:39:24.821Z,4.16
2019-02-07T10:40:25.003Z,4.16
2019-02-07T10:41:25.202Z,4.13
2019-02-07T10:42:25.407Z,4.22
2019-02-07T10:43:25.627Z,4.27
2019-02-07T10:44:25.868Z,4.24
2019-02-07T10:45:26.145Z,4.31
2019-02-07T10:46:26.221Z,4.22
2019-02-07T10:47:26.482Z,4.27
2019-02-07T10:48:26.691Z,4.21
2019-02-07T10:49:26.928Z,4.27
2019-02-07T10:50:27.123Z,4.34
2019-02-07T10:51:27.316Z,4.39
2019-02-07T10:52:27.539Z,4.40
2019-02-07T10:53:27.778Z,4.40
2019-02-07T10:54:27.969Z,4.50
2019-02-07T10:55:28.151Z,4.58
2019-02-07T10:56:28.365Z,4.61
2019-02-07T10:57:28.583Z,4.75
2019-02-07T10:58:28.749Z,4.89
2019-02-07T10:59:28.979Z,5.04
2019-02-07T11:00:29.188Z,5.12
2019-02-07T11:01:29.501Z,5.05
2019-02-07T11:02:29.643Z,5.12
2019-02-07T11:03:29.823Z,5.10
2019-02-07T11:04:30.029Z,5.08
2019-02-07T11:05:30.236Z,5.08
2019-02-07T11:06:30.453Z,5.19
2019-02-07T11:07:30.670Z,5.31
2019-02-07T11:08:30.853Z,5.43
2019-02-07T11:09:31.201Z,5.54
2019-02-07T11:10:31.402Z,5.69
2019-02-07T11:11:31.498Z,5.79
2019-02-07T11:12:31.704Z,5.73
2019-02-07T11:13:31.893Z,5.80
2019-02-07T11:14:32.121Z,5.81
2019-02-07T11:15:32.293Z,5.91
2019-02-07T11:16:32.526Z,5.91
2019-02-07T11:17:32.741Z,5.87
2019-02-07T11:18:33.074Z,5.79
2019-02-07T11:19:33.164Z,5.84
2019-02-07T11:20:33.351Z,5.97
2019-02-07T11:21:33.564Z,5.94
2019-02-07T11:22:33.792Z,5.95
2019-02-07T11:23:33.974Z,5.94
2019-02-07T11:24:34.204Z,6.07
2019-02-07T11:25:34.445Z,6.12
2019-02-07T11:26:34.647Z,6.10
2019-02-07T11:27:34.808Z,6.13
2019-02-07T11:28:35.006Z,6.22
2019-02-07T11:29:35.233Z,6.34
2019-02-07T11:30:35.452Z,6.53
2019-02-07T11:31:35.631Z,6.52
2019-02-07T11:32:35.839Z,6.62
2019-02-07T11:33:36.046Z,6.62
2019-02-07T11:34:36.546Z,6.70
2019-02-07T11:35:36.453Z,6.74
2019-02-07T11:36:36.714Z,6.85
2019-02-07T11:37:36.855Z,6.85
2019-02-07T11:38:37.034Z,6.92
2019-02-07T11:39:37.267Z,7.07
2019-02-07T11:40:37.498Z,6.97
2019-02-07T11:41:37.672Z,7.03
2019-02-07T11:42:37.945Z,7.10
2019-02-07T11:43:38.111Z,7.07
2019-02-07T11:44:38.312Z,7.18
2019-02-07T11:45:38.516Z,7.05
2019-02-07T11:46:38.703Z,7.05
2019-02-07T11:47:38.928Z,7.11
2019-02-07T11:48:39.165Z,7.13
2019-02-07T11:49:39.325Z,7.03
2019-02-07T11:50:39.587Z,7.04
2019-02-07T11:51:39.847Z,6.87
2019-02-07T11:52:39.964Z,6.85
2019-02-07T11:53:40.136Z,6.80
2019-02-07T11:54:40.366Z,6.72
2019-02-07T11:55:40.588Z,6.71
2019-02-07T11:56:40.766Z,6.86
2019-02-07T11:57:40.993Z,6.72
2019-02-07T11:58:41.179Z,6.72
2019-02-07T11:59:41.470Z,6.77
2019-02-07T12:00:41.622Z,6.86
2019-02-07T12:01:41.802Z,6.87
2019-02-07T12:02:42.031Z,6.85
2019-02-07T12:03:42.215Z,6.82
2019-02-07T12:04:42.425Z,6.89
2019-02-07T12:05:42.643Z,7.01
2019-02-07T12:06:42.853Z,6.86
2019-02-07T12:07:43.334Z,6.90
2019-02-07T12:08:43.244Z,6.82
2019-02-07T12:09:43.461Z,6.92
2019-02-07T12:10:43.705Z,6.90
2019-02-07T12:11:43.881Z,6.87
2019-02-07T12:12:44.118Z,6.95
2019-02-07T12:13:44.305Z,6.90
2019-02-07T12:14:44.501Z,6.86
2019-02-07T12:15:44.803Z,6.95
2019-02-07T12:16:44.879Z,6.86
2019-02-07T12:17:45.111Z,6.89
2019-02-07T12:18:45.330Z,6.92
2019-02-07T12:19:45.535Z,6.95
2019-02-07T12:20:45.787Z,6.96
2019-02-07T12:21:45.948Z,6.89
2019-02-07T12:22:46.175Z,6.90
2019-02-07T12:23:46.386Z,6.95
2019-02-07T12:24:46.646Z,6.86
2019-02-07T12:25:46.807Z,6.89
2019-02-07T12:26:46.977Z,6.90
2019-02-07T12:27:47.190Z,6.93
2019-02-07T12:28:47.378Z,6.90
2019-02-07T12:29:47.605Z,6.87
2019-02-07T12:30:47.855Z,6.95
2019-02-07T12:31:48.019Z,6.89
2019-02-07T12:32:48.353Z,6.83
2019-02-07T12:33:48.429Z,7.00
2019-02-07T12:34:48.644Z,6.92
2019-02-07T12:35:48.922Z,6.97
2019-02-07T12:36:49.087Z,6.95
2019-02-07T12:37:49.291Z,6.86
2019-02-07T12:38:49.468Z,6.85
2019-02-07T12:39:49.673Z,6.78
2019-02-07T12:40:49.973Z,6.83
2019-02-07T12:41:50.194Z,6.87
2019-02-07T12:42:50.316Z,6.87
2019-02-07T12:43:50.500Z,6.93
2019-02-07T12:44:50.693Z,6.85
2019-02-07T12:45:50.931Z,6.86
2019-02-07T12:46:51.148Z,6.80
2019-02-07T12:47:51.345Z,6.87
2019-02-07T12:48:51.571Z,6.83
2019-02-07T12:49:51.710Z,6.77
2019-02-07T12:50:51.940Z,6.72
2019-02-07T12:51:52.153Z,6.68
2019-02-07T12:52:52.364Z,6.75
2019-02-07T12:53:52.552Z,6.71
2019-02-07T12:54:52.758Z,6.70
2019-02-07T12:55:52.988Z,6.77
2019-02-07T12:56:53.242Z,6.77
2019-02-07T12:57:53.426Z,6.85
2019-02-07T12:58:53.595Z,6.77
2019-02-07T12:59:53.801Z,6.78
2019-02-07T13:00:54.025Z,6.85
2019-02-07T13:01:54.200Z,6.85
2019-02-07T13:02:54.423Z,6.80
2019-02-07T13:03:54.642Z,6.74
2019-02-07T13:04:54.859Z,6.78
2019-02-07T13:05:55.218Z,6.75
2019-02-07T13:06:55.254Z,6.68
2019-02-07T13:07:55.468Z,6.72
2019-02-07T13:08:55.691Z,6.68
2019-02-07T13:09:55.899Z,6.70
2019-02-07T13:10:56.123Z,6.65
2019-02-07T13:11:56.342Z,6.64
2019-02-07T13:12:56.546Z,6.71
2019-02-07T13:13:56.841Z,6.56